Time;durP1;ratioP1;P1;durP2;ratioP2;P2;SDS_P1;SDS_P2;PMS_P1;PMS_P2;Temp;Humidity;BMP_temperature;BMP_pressure;BME280_temperature;BME280_humidity;BME280_pressure;Samples;Min_cycle;Max_cycle;Signal;HPM_P1;HPM_P2
2022/09/09 01:09:26;;;;;;;3.72;0.60;;;;;;;22.57;42.75;94153.81;5105607;28;20046;-89
2022/09/09 01:11:59;;;;;;;2.30;0.70;;;;;;;22.82;44.29;94152.81;5047757;28;20048;-92
2022/09/09 01:14:36;;;;;;;4.33;0.90;;;;;;;22.85;43.71;94152.84;5059378;28;20036;-93
2022/09/09 01:17:25;;;;;;;3.17;0.80;;;;;;;22.77;42.55;94153.84;5058426;28;20115;-92
2022/09/09 01:19:54;;;;;;;1.63;0.75;;;;;;;22.85;41.52;94152.84;5059024;28;20453;-94
2022/09/09 01:23:07;;;;;;;1.73;0.60;;;;;;;23.29;40.38;94151.81;5058182;28;20029;-93
2022/09/09 01:28:54;;;;;;;5.95;1.10;;;;;;;22.83;45.94;94147.09;5039186;28;20135;-93
2022/09/09 01:31:28;;;;;;;4.10;1.13;;;;;;;22.78;44.02;94151.94;5054189;28;20033;-94
2022/09/09 01:33:54;;;;;;;3.53;0.90;;;;;;;22.62;43.53;94144.75;5021162;28;20053;-93
2022/09/09 01:36:57;;;;;;;3.40;0.77;;;;;;;22.93;45.26;94151.09;5021553;28;20442;-93
2022/09/09 01:39:42;;;;;;;3.57;0.70;;;;;;;22.67;47.40;94167.75;5011937;28;20469;-93
2022/09/09 01:42:09;;;;;;;2.65;0.77;;;;;;;22.27;45.09;94156.19;5021383;28;20052;-92
2022/09/09 01:44:36;;;;;;;1.95;0.80;;;;;;;22.52;44.10;94158.66;5037650;28;20038;-93
2022/09/09 01:47:02;;;;;;;2.03;0.77;;;;;;;22.65;42.90;94141.38;5021368;28;20029;-93
2022/09/09 01:49:27;;;;;;;0.90;0.75;;;;;;;22.80;41.48;94147.00;5037369;28;20029;-92
2022/09/09 01:51:54;;;;;;;2.88;0.60;;;;;;;22.95;41.20;94148.09;5054192;28;20091;-93
2022/09/09 01:54:20;;;;;;;1.05;0.60;;;;;;;23.24;41.11;94149.41;5021518;28;20087;-92
2022/09/09 01:57:01;;;;;;;3.50;0.93;;;;;;;23.32;40.61;94141.53;5021481;28;20411;-93
2022/09/09 01:59:46;;;;;;;2.72;0.70;;;;;;;22.98;41.47;94145.50;5037462;28;20046;-91
2022/09/09 02:02:22;;;;;;;5.93;0.80;;;;;;;22.96;41.78;94141.63;5037522;28;20124;-93
2022/09/09 02:04:50;;;;;;;4.07;0.98;;;;;;;23.05;41.38;94146.75;5037292;28;20057;-92
2022/09/09 02:07:50;;;;;;;2.47;0.75;;;;;;;22.85;41.34;94138.75;5020994;28;20040;-93
2022/09/09 02:10:24;;;;;;;4.50;0.80;;;;;;;22.22;44.89;94153.78;5039705;28;20056;-92
2022/09/09 02:12:58;;;;;;;0.95;0.55;;;;;;;22.70;45.94;94143.00;5020857;28;20029;-93
2022/09/09 02:15:38;;;;;;;3.08;0.57;;;;;;;22.67;43.94;94146.38;5050149;28;20056;-93
2022/09/09 02:18:30;;;;;;;2.40;0.70;;;;;;;22.43;43.17;94154.25;5020728;28;20029;-92
2022/09/09 02:21:15;;;;;;;1.58;0.55;;;;;;;21.94;43.73;94146.66;5036810;28;20032;-92
2022/09/09 02:23:42;;;;;;;5.35;0.80;;;;;;;22.08;45.42;94146.22;5039031;28;20037;-92
2022/09/09 02:26:09;;;;;;;3.95;0.63;;;;;;;21.87;45.40;94140.06;5040401;28;20035;-92
2022/09/09 02:28:34;;;;;;;2.65;0.80;;;;;;;22.18;43.84;94143.81;5023819;28;20433;-92
2022/09/09 02:31:00;;;;;;;8.43;0.80;;;;;;;22.15;43.98;94138.38;5040280;28;20032;-92
2022/09/09 02:33:30;;;;;;;4.68;0.75;;;;;;;22.45;42.72;94135.22;5023860;28;20113;-92
2022/09/09 02:36:01;;;;;;;2.67;0.50;;;;;;;21.89;45.09;94137.81;5040246;28;20029;-92
2022/09/09 02:38:28;;;;;;;1.85;0.93;;;;;;;21.85;45.17;94131.63;5020581;28;20029;-92
2022/09/09 02:40:54;;;;;;;4.05;1.00;;;;;;;21.82;47.40;94132.31;5056475;28;20112;-92
2022/09/09 02:46:50;;;;;;;2.78;0.73;;;;;;;22.44;43.58;94129.13;5036761;28;20041;-92
2022/09/09 02:49:49;;;;;;;1.80;0.70;;;;;;;22.39;43.65;94132.06;5040514;28;20099;-92
2022/09/09 02:52:16;;;;;;;1.23;0.88;;;;;;;21.96;45.37;94131.88;5057423;28;20029;-91
2022/09/09 02:54:43;;;;;;;8.32;0.93;;;;;;;22.42;46.63;94120.69;5039757;28;20120;-93
2022/09/09 02:57:08;;;;;;;2.97;0.65;;;;;;;22.33;45.32;94122.78;5056585;28;20117;-93
2022/09/09 02:59:34;;;;;;;2.58;0.63;;;;;;;22.37;47.64;94128.19;5039720;28;20450;-93
2022/09/09 03:04:44;;;;;;;3.65;0.73;;;;;;;21.92;46.52;94124.91;5056656;28;20071;-93
2022/09/09 03:07:10;;;;;;;1.98;0.52;;;;;;;22.15;46.70;94120.50;5020106;28;20029;-94
2022/09/09 03:09:54;;;;;;;1.98;0.60;;;;;;;22.17;49.80;94128.16;5038312;28;20029;-93
2022/09/09 03:12:20;;;;;;;7.00;0.90;;;;;;;21.63;49.97;94127.66;5057114;28;20438;-93
2022/09/09 03:14:46;;;;;;;4.13;0.75;;;;;;;21.65;48.08;94124.63;5039494;28;20024;-92
2022/09/09 03:17:12;;;;;;;6.15;0.90;;;;;;;21.84;46.91;94127.41;5020010;28;20426;-93
2022/09/09 03:19:37;;;;;;;6.03;0.80;;;;;;;21.85;47.46;94118.28;5039383;28;20032;-93
2022/09/09 03:22:04;;;;;;;3.53;0.50;;;;;;;21.70;48.43;94117.16;5023101;28;20338;-94
2022/09/09 03:24:29;;;;;;;3.53;0.63;;;;;;;21.93;48.89;94119.22;5039352;28;20032;-93
2022/09/09 03:26:55;;;;;;;2.70;0.57;;;;;;;21.97;47.62;94119.31;5055916;28;20025;-93
2022/09/09 03:29:21;;;;;;;2.58;0.65;;;;;;;21.87;48.70;94117.94;5031949;28;20036;-92
2022/09/09 03:31:47;;;;;;;4.03;0.75;;;;;;;21.88;48.47;94117.59;5022566;28;20032;-92
2022/09/09 03:34:13;;;;;;;1.67;0.50;;;;;;;21.82;48.97;94113.66;5039281;28;20029;-92
2022/09/09 03:36:40;;;;;;;1.75;0.52;;;;;;;21.84;48.66;94113.28;5022852;28;20087;-93
2022/09/09 03:39:06;;;;;;;1.63;0.70;;;;;;;21.83;47.35;94112.53;5019531;28;20029;-94
2022/09/09 03:41:32;;;;;;;4.03;0.60;;;;;;;21.85;48.02;94109.50;5039001;28;20031;-93
2022/09/09 03:43:57;;;;;;;2.03;0.60;;;;;;;21.90;48.76;94114.59;5019625;28;20031;-92
2022/09/09 03:46:24;;;;;;;5.30;0.80;;;;;;;21.98;48.41;94112.88;5019605;28;20032;-93
2022/09/09 03:52:12;;;;;;;2.78;0.75;;;;;;;21.75;47.81;94105.47;5056698;28;20036;-94
2022/09/09 03:54:37;;;;;;;2.55;0.73;;;;;;;21.75;47.96;94094.81;5037273;28;20025;-92
2022/09/09 03:57:04;;;;;;;2.13;0.80;;;;;;;21.95;47.66;94097.53;5035551;28;20033;-93
2022/09/09 03:59:29;;;;;;;1.05;0.55;;;;;;;21.89;47.41;94094.38;5019860;28;20029;-92
2022/09/09 04:01:56;;;;;;;2.05;0.82;;;;;;;21.93;49.19;94100.56;5036134;28;20030;-93
2022/09/09 04:04:22;;;;;;;2.30;0.52;;;;;;;21.74;48.74;94101.25;5035697;28;20084;-93
2022/09/09 04:06:50;;;;;;;3.17;1.17;;;;;;;21.93;48.84;94100.56;5022861;28;20123;-94
2022/09/09 04:09:16;;;;;;;2.75;0.50;;;;;;;21.58;48.79;94095.91;5039162;28;20055;-94
2022/09/09 04:11:41;;;;;;;2.65;0.73;;;;;;;21.59;50.35;94100.91;5037568;28;20128;-93
2022/09/09 04:14:28;;;;;;;2.10;0.80;;;;;;;22.10;49.57;94099.44;5038891;28;20021;-93
2022/09/09 04:19:39;;;;;;;2.47;0.80;;;;;;;21.18;51.80;94111.69;5037437;28;20045;-93
2022/09/09 04:22:08;;;;;;;6.47;0.90;;;;;;;21.36;52.65;94108.72;5035220;28;20037;-92
2022/09/09 04:24:52;;;;;;;5.03;0.70;;;;;;;21.77;53.05;94103.22;5054380;28;20396;-92
2022/09/09 04:27:17;;;;;;;;;;;;;;;21.93;52.65;94108.56;5056695;28;20029;-93
2022/09/09 04:29:42;;;;;;;4.53;0.80;;;;;;;21.74;54.18;94098.59;5037621;28;19909;-93
2022/09/09 04:32:08;;;;;;;1.00;0.65;;;;;;;21.58;52.74;94102.00;5035584;28;20272;-92
2022/09/09 04:34:33;;;;;;;5.15;1.20;;;;;;;21.75;52.32;94108.13;5022131;28;20060;-93
2022/09/09 04:37:00;;;;;;;2.13;0.80;;;;;;;22.01;51.60;94107.59;5018706;28;20039;-92
2022/09/09 04:39:26;;;;;;;4.40;1.10;;;;;;;22.11;53.19;94106.31;5018774;28;20033;-92
2022/09/09 04:41:51;;;;;;;2.53;1.00;;;;;;;22.09;54.77;94103.19;5055667;28;20031;-89
2022/09/09 04:44:16;;;;;;;7.53;1.02;;;;;;;21.94;53.17;94094.09;5059255;28;20346;-89
2022/09/09 04:46:42;;;;;;;0.93;0.68;;;;;;;21.92;54.01;94098.22;5060179;28;20032;-88
2022/09/09 04:49:07;;;;;;;2.15;0.80;;;;;;;22.02;54.40;94097.72;5060441;28;20037;-89
2022/09/09 04:51:33;;;;;;;3.03;0.75;;;;;;;22.20;54.94;94098.09;5039761;28;20025;-89
2022/09/09 04:53:58;;;;;;;3.15;0.82;;;;;;;21.76;57.16;94099.03;5059973;28;20032;-89
2022/09/09 04:56:26;;;;;;;5.38;0.93;;;;;;;21.84;57.44;94095.41;5059825;28;20485;-88
2022/09/09 05:01:36;;;;;;;6.55;1.20;;;;;;;22.38;56.20;94087.81;5044229;28;20086;-87
2022/09/09 05:04:02;;;;;;;4.55;1.02;;;;;;;22.85;54.40;94090.66;5058549;28;20375;-88
2022/09/09 05:06:29;;;;;;;4.15;1.05;;;;;;;23.05;55.09;94083.41;5041763;28;20036;-87
2022/09/09 05:08:55;;;;;;;3.28;0.82;;;;;;;23.26;55.02;94085.72;5041847;28;20507;-87
2022/09/09 05:11:26;;;;;;;3.70;0.85;;;;;;;23.43;55.43;94091.72;5058696;28;20071;-89
2022/09/09 05:13:52;;;;;;;5.18;1.38;;;;;;;23.35;55.91;94090.03;5042051;28;20021;-88
2022/09/09 05:16:18;;;;;;;5.03;1.13;;;;;;;23.55;55.95;94090.75;5038519;28;20096;-88
2022/09/09 05:18:44;;;;;;;2.13;0.90;;;;;;;23.41;57.03;94097.41;5041129;28;20346;-89
2022/09/09 05:21:32;;;;;;;5.55;0.93;;;;;;;23.26;59.45;94106.28;5038519;28;20040;-88
2022/09/09 05:23:58;;;;;;;5.10;1.30;;;;;;;23.37;57.75;94109.16;5052069;28;20037;-88
2022/09/09 05:26:24;;;;;;;4.50;0.70;;;;;;;23.58;57.11;94098.06;5058284;28;20422;-89
2022/09/09 05:29:33;;;;;;;4.13;1.13;;;;;;;23.94;56.45;94103.19;5041766;28;20028;-90
2022/09/09 05:32:40;;;;;;;3.28;1.08;;;;;;;23.83;60.31;94113.75;5058912;28;20025;-89
2022/09/09 05:35:05;;;;;;;3.03;0.82;;;;;;;23.44;62.34;94094.03;5041459;28;20056;-88
2022/09/09 05:40:15;;;;;;;6.97;1.13;;;;;;;23.58;61.92;94098.06;5038162;28;20044;-87
2022/09/09 05:42:41;;;;;;;5.30;1.02;;;;;;;23.79;61.96;94111.00;5057807;28;20029;-87
2022/09/09 05:45:08;;;;;;;3.95;1.20;;;;;;;23.60;66.92;94111.88;5059226;28;20036;-90
2022/09/09 05:47:35;;;;;;;5.25;0.85;;;;;;;23.50;66.43;94112.47;5057841;28;20025;-88
2022/09/09 05:50:01;;;;;;;5.57;1.00;;;;;;;23.64;67.99;94114.59;5023261;28;20026;-88
2022/09/09 05:55:10;;;;;;;3.53;0.98;;;;;;;23.79;66.17;94126.31;5023794;28;20068;-89
2022/09/09 05:57:35;;;;;;;3.97;1.20;;;;;;;24.14;64.82;94117.28;5038857;28;20116;-89
2022/09/09 06:00:01;;;;;;;6.38;1.20;;;;;;;24.31;66.36;94120.56;5021138;28;20041;-91
2022/09/09 06:02:27;;;;;;;8.45;1.20;;;;;;;23.84;63.92;94116.06;5020771;28;20033;-90
2022/09/09 06:04:52;;;;;;;8.43;1.58;;;;;;;24.24;68.47;94114.00;5038422;28;20037;-90
2022/09/09 06:07:17;;;;;;;6.28;1.48;;;;;;;24.25;60.75;94114.78;5038368;28;20034;-90
2022/09/09 06:09:43;;;;;;;7.35;1.30;;;;;;;24.99;59.12;94118.78;5037170;28;20040;-90
2022/09/09 06:12:08;;;;;;;7.63;1.10;;;;;;;24.60;64.28;94116.38;5038116;28;20033;-88
2022/09/09 06:14:34;;;;;;;6.55;0.90;;;;;;;24.17;72.34;94108.53;5020924;28;20033;-88
2022/09/09 06:19:43;;;;;;;4.03;1.10;;;;;;;24.93;68.61;94112.19;5038472;28;20174;-89
2022/09/09 06:22:11;;;;;;;4.63;1.20;;;;;;;24.59;77.01;94112.16;5038393;28;20116;-89
2022/09/09 06:24:37;;;;;;;6.35;1.00;;;;;;;24.83;78.32;94110.19;5038280;28;20130;-89
2022/09/09 06:27:03;;;;;;;7.35;1.05;;;;;;;24.99;75.23;94107.28;5021005;28;20068;-89
2022/09/09 06:29:28;;;;;;;7.85;1.05;;;;;;;25.21;72.13;94115.56;5020402;28;20419;-89
2022/09/09 06:31:54;;;;;;;2.38;1.10;;;;;;;25.33;67.28;94111.84;5020598;28;20037;-89
2022/09/09 06:34:19;;;;;;;3.03;0.90;;;;;;;25.35;68.27;94118.41;5020833;28;20040;-88
2022/09/09 06:36:45;;;;;;;3.80;0.90;;;;;;;25.29;71.13;94113.72;5004365;28;20458;-88
2022/09/09 06:39:11;;;;;;;10.60;1.40;;;;;;;25.45;66.00;94116.16;5038396;28;20033;-88
2022/09/09 06:41:58;;;;;;;4.10;0.90;;;;;;;25.58;62.54;94116.72;5020018;28;20422;-85
2022/09/09 06:44:26;;;;;;;3.03;0.95;;;;;;;25.55;62.75;94105.59;5004032;28;20044;-85
2022/09/09 06:46:52;;;;;;;7.18;1.10;;;;;;;25.86;64.88;94112.72;5020765;28;20038;-87
2022/09/09 06:49:17;;;;;;;12.70;1.65;;;;;;;25.89;70.08;94106.59;5027883;28;20033;-86
2022/09/09 06:52:01;;;;;;;3.00;0.73;;;;;;;25.80;70.96;94105.00;5056600;28;20029;-86
2022/09/09 06:54:27;;;;;;;6.53;0.90;;;;;;;25.97;63.42;94108.22;5057728;28;20025;-86
2022/09/09 06:56:53;;;;;;;3.38;0.98;;;;;;;25.59;68.38;94102.91;5057440;28;20032;-86
2022/09/09 06:59:19;;;;;;;3.10;1.05;;;;;;;25.87;65.45;94106.97;5039834;28;20434;-85
2022/09/09 07:01:45;;;;;;;7.00;1.30;;;;;;;25.89;65.13;94109.28;5055911;28;20461;-84
2022/09/09 07:04:11;;;;;;;4.10;0.90;;;;;;;25.76;68.96;94114.19;5055739;28;20037;-86
2022/09/09 07:06:38;;;;;;;5.18;1.02;;;;;;;26.13;63.51;94112.53;5039365;28;20051;-86
2022/09/09 07:09:09;;;;;;;6.10;1.20;;;;;;;26.44;63.12;94113.13;5036332;28;20029;-86
2022/09/09 07:11:38;;;;;;;9.65;1.27;;;;;;;26.53;64.20;94108.16;5036905;28;20033;-86
2022/09/09 07:14:04;;;;;;;7.10;1.02;;;;;;;26.26;57.62;94111.13;5056167;28;20124;-86
2022/09/09 07:16:31;;;;;;;5.75;1.10;;;;;;;25.66;59.90;94104.88;5039487;28;20409;-86
2022/09/09 07:18:57;;;;;;;10.57;1.23;;;;;;;25.81;58.23;94119.19;5055904;28;20078;-87
2022/09/09 07:21:24;;;;;;;6.55;1.35;;;;;;;25.42;59.01;94115.78;5056808;28;20029;-86
2022/09/09 07:23:50;;;;;;;7.63;1.20;;;;;;;25.76;57.88;94111.50;5039026;28;20584;-87
2022/09/09 07:26:20;;;;;;;10.60;1.10;;;;;;;25.19;59.77;94109.81;5036396;28;20051;-89
2022/09/09 07:28:46;;;;;;;4.20;0.93;;;;;;;24.84;60.82;94101.03;5039608;28;20135;-89
2022/09/09 07:31:17;;;;;;;7.32;1.30;;;;;;;26.07;59.41;94107.50;5055506;28;20051;-88
2022/09/09 07:33:43;;;;;;;2.90;1.13;;;;;;;26.69;60.94;94107.88;5055655;28;20422;-88
2022/09/09 07:36:23;;;;;;;11.43;1.48;;;;;;;26.53;56.69;94106.25;5055902;28;20033;-89
2022/09/09 07:38:51;;;;;;;5.53;1.10;;;;;;;26.39;56.35;94117.69;5039399;28;20029;-89
2022/09/09 07:41:22;;;;;;;2.20;0.80;;;;;;;26.71;58.43;94115.56;5035708;28;20422;-89
2022/09/09 07:44:07;;;;;;;5.40;0.90;;;;;;;27.29;52.07;94111.16;5055806;28;20033;-87
2022/09/09 07:46:33;;;;;;;14.05;1.38;;;;;;;27.29;55.85;94121.16;5039088;28;20453;-86
2022/09/09 07:48:59;;;;;;;10.23;1.67;;;;;;;27.65;63.09;94115.84;5055434;28;20024;-86
2022/09/09 07:51:30;;;;;;;8.07;1.10;;;;;;;27.50;65.14;94120.41;5055516;28;20422;-86
2022/09/09 07:53:57;;;;;;;5.95;1.00;;;;;;;27.55;73.67;94119.31;5035451;28;20433;-86
2022/09/09 07:56:23;;;;;;;6.90;1.10;;;;;;;27.16;66.06;94121.50;5035693;28;20037;-86
2022/09/09 07:58:53;;;;;;;7.03;1.23;;;;;;;27.38;56.72;94126.91;5038391;28;20335;-85
2022/09/09 08:01:23;;;;;;;6.68;1.10;;;;;;;27.18;63.97;94121.09;5054810;28;20123;-86
2022/09/09 08:04:00;;;;;;;5.68;1.27;;;;;;;27.51;60.77;94122.72;5055249;28;20029;-87
2022/09/09 08:06:27;;;;;;;8.77;1.45;;;;;;;27.54;67.36;94125.81;5057093;28;20037;-86
2022/09/09 08:08:54;;;;;;;8.73;1.75;;;;;;;27.07;59.84;94129.94;5055385;28;20035;-86
2022/09/09 08:11:22;;;;;;;5.07;1.10;;;;;;;27.49;57.70;94130.41;5054785;28;20071;-85
2022/09/09 08:13:49;;;;;;;4.22;0.73;;;;;;;27.72;63.32;94126.63;5038762;28;20086;-86
2022/09/09 08:16:30;;;;;;;8.90;0.82;;;;;;;27.85;60.51;94131.63;5036708;28;20063;-87
2022/09/09 08:18:56;;;;;;;5.03;1.02;;;;;;;26.89;63.59;94134.44;5056057;28;20036;-86
2022/09/09 08:21:27;;;;;;;5.97;1.30;;;;;;;26.35;56.44;94133.03;5039160;28;20037;-88
2022/09/09 08:23:54;;;;;;;5.45;1.00;;;;;;;27.18;52.95;94132.66;5039345;28;20405;-88
2022/09/09 08:26:42;;;;;;;8.68;1.05;;;;;;;26.45;51.07;94131.53;5030129;28;20051;-87
2022/09/09 08:29:10;;;;;;;14.85;1.35;;;;;;;27.03;55.55;94125.69;5038850;28;20025;-83
2022/09/09 08:31:56;;;;;;;4.20;0.80;;;;;;;27.35;51.53;94131.16;5056593;28;20110;-85
2022/09/09 08:34:23;;;;;;;7.53;1.02;;;;;;;27.12;51.67;94136.88;5042259;28;20072;-85
2022/09/09 08:36:49;;;;;;;2.78;1.10;;;;;;;26.82;54.77;94137.84;5060113;28;20035;-86
2022/09/09 08:39:33;;;;;;;5.35;0.90;;;;;;;26.64;52.94;94140.47;5042431;28;20055;-86
2022/09/09 08:45:02;;;;;;;3.63;0.82;;;;;;;27.49;50.63;94135.03;5059014;28;20044;-84
2022/09/09 08:48:01;;;;;;;6.63;1.27;;;;;;;27.58;49.94;94130.06;5022449;28;20453;-85
2022/09/09 08:50:31;;;;;;;5.13;0.85;;;;;;;27.52;50.92;94137.72;5021832;28;20029;-86
2022/09/09 08:53:07;;;;;;;7.88;1.20;;;;;;;26.46;52.98;94137.69;5022582;28;20044;-83
2022/09/09 08:55:51;;;;;;;5.05;0.80;;;;;;;26.61;52.64;94141.22;5038691;28;20350;-85
2022/09/09 08:58:31;;;;;;;6.25;1.42;;;;;;;26.26;50.57;94146.03;5040006;28;20037;-84
2022/09/09 09:04:27;;;;;;;8.45;1.27;;;;;;;27.45;50.81;94136.91;5054808;28;20036;-85
2022/09/09 09:07:08;;;;;;;8.40;1.02;;;;;;;27.69;50.17;94148.91;5036226;28;20128;-85
2022/09/09 09:12:57;;;;;;;9.13;1.65;;;;;;;27.75;48.32;94143.91;5020777;28;20531;-83
2022/09/09 09:15:25;;;;;;;10.13;1.23;;;;;;;27.04;49.95;94146.81;5054775;28;20029;-83
2022/09/09 09:17:50;;;;;;;3.78;1.10;;;;;;;27.67;49.37;94143.13;5046877;28;20030;-84
2022/09/09 09:20:17;;;;;;;8.70;0.85;;;;;;;27.28;45.01;94139.19;5037638;28;20430;-85
2022/09/09 09:22:51;;;;;;;2.90;0.93;;;;;;;27.60;45.43;94145.81;5040195;28;20045;-83
2022/09/09 09:25:20;;;;;;;6.38;1.05;;;;;;;28.11;45.63;94141.22;5035769;28;20040;-82
2022/09/09 09:28:25;;;;;;;10.40;0.93;;;;;;;27.76;45.76;94146.22;5057152;28;20164;-83
2022/09/09 09:31:01;;;;;;;5.82;0.80;;;;;;;27.71;49.67;94148.53;4977940;28;20066;-84
2022/09/09 09:33:27;;;;;;;7.25;1.05;;;;;;;27.23;46.09;94145.72;4945917;28;20429;-83
2022/09/09 09:35:53;;;;;;;6.07;1.00;;;;;;;27.84;49.76;94159.69;5012495;28;20076;-82
2022/09/09 09:38:45;;;;;;;10.07;4.53;;;;;;;28.13;46.86;94154.31;5038000;28;20045;-82
2022/09/09 09:41:11;;;;;;;7.43;1.20;;;;;;;27.75;47.18;94158.13;5038427;28;20033;-83
2022/09/09 09:43:37;;;;;;;5.03;1.02;;;;;;;28.48;44.88;94160.81;5039867;28;20346;-82
2022/09/09 09:46:26;;;;;;;9.65;1.15;;;;;;;28.64;47.61;94155.78;5040756;28;20041;-82
2022/09/09 09:49:05;;;;;;;6.28;1.13;;;;;;;28.65;43.46;94162.69;5048182;28;20044;-82
2022/09/09 09:51:32;;;;;;;6.70;1.40;;;;;;;28.74;44.97;94150.75;5027415;28;20032;-83
2022/09/09 09:54:09;;;;;;;6.35;1.08;;;;;;;28.03;46.05;94156.63;5027076;28;20057;-83
2022/09/09 09:56:35;;;;;;;4.35;1.13;;;;;;;27.69;47.93;94154.31;5020739;28;20136;-84
2022/09/09 09:59:00;;;;;;;5.18;0.88;;;;;;;28.28;47.16;94150.47;5038742;28;20120;-82
2022/09/09 10:01:33;;;;;;;4.97;0.93;;;;;;;27.86;48.45;94155.44;5037039;28;20029;-82
2022/09/09 10:04:13;;;;;;;3.97;0.73;;;;;;;28.71;46.75;94165.78;5032987;28;20438;-84
2022/09/09 10:06:39;;;;;;;3.90;0.90;;;;;;;28.94;44.09;94156.50;5040301;28;20033;-84
2022/09/09 10:09:27;;;;;;;6.53;1.10;;;;;;;28.73;44.58;94165.41;5037478;28;20037;-84
2022/09/09 10:12:03;;;;;;;5.80;1.30;;;;;;;27.77;52.18;94149.69;5040456;28;20029;-85
2022/09/09 10:14:41;;;;;;;4.32;0.98;;;;;;;28.01;52.74;94155.44;5036891;28;20029;-84
2022/09/09 10:17:09;;;;;;;3.72;1.25;;;;;;;28.19;51.63;94155.47;5017556;28;20033;-85
2022/09/09 10:19:36;;;;;;;6.43;1.13;;;;;;;27.39;53.72;94152.66;5018222;28;20041;-85
2022/09/09 10:22:24;;;;;;;10.15;1.40;;;;;;;27.22;49.17;94152.25;5001089;28;20029;-85
2022/09/09 10:24:59;;;;;;;3.88;0.80;;;;;;;27.61;46.44;94153.50;5017338;28;20042;-85
2022/09/09 10:28:08;;;;;;;4.68;1.00;;;;;;;28.05;49.33;94151.59;5034605;28;20036;-84
2022/09/09 10:30:49;;;;;;;5.38;0.85;;;;;;;28.04;46.62;94157.38;5001619;28;20081;-84
2022/09/09 10:33:33;;;;;;;5.40;0.77;;;;;;;28.22;50.50;94146.63;5028818;28;20116;-84
2022/09/09 10:36:11;;;;;;;5.13;1.17;;;;;;;28.23;50.10;94148.16;5048307;28;20041;-83
2022/09/09 10:38:43;;;;;;;5.38;1.20;;;;;;;28.98;47.15;94157.25;5040261;28;20108;-84
2022/09/09 10:41:36;;;;;;;4.88;0.88;;;;;;;28.12;50.75;94152.75;5039570;28;20086;-84
2022/09/09 10:44:17;;;;;;;5.50;1.35;;;;;;;28.26;47.51;94146.63;5039733;28;20075;-85
2022/09/09 10:47:01;;;;;;;5.00;0.93;;;;;;;29.30;44.96;94140.13;5056662;28;20029;-84
2022/09/09 10:50:06;;;;;;;5.30;0.85;;;;;;;29.51;42.50;94143.13;5056258;28;20041;-85
2022/09/09 10:53:02;;;;;;;4.88;0.93;;;;;;;28.00;45.21;94140.44;5017119;28;20037;-87
2022/09/09 10:55:35;;;;;;;3.95;0.80;;;;;;;29.13;45.37;94144.47;5019968;28;20026;-85
2022/09/09 10:58:02;;;;;;;7.10;1.23;;;;;;;28.74;44.48;94139.97;5036283;28;20018;-84
2022/09/09 11:00:39;;;;;;;8.57;1.10;;;;;;;28.47;45.89;94141.19;5036016;28;20324;-84
2022/09/09 11:03:06;;;;;;;6.35;1.25;;;;;;;28.96;45.37;94142.59;5036054;28;20116;-86
2022/09/09 11:05:41;;;;;;;3.78;1.10;;;;;;;29.75;45.02;94128.69;5052150;28;20425;-84
2022/09/09 11:08:33;;;;;;;3.58;1.00;;;;;;;29.57;43.74;94126.13;5026905;28;20037;-86
2022/09/09 11:13:52;;;;;;;9.18;1.73;;;;;;;28.58;43.17;94122.31;5036112;28;20071;-85
2022/09/09 11:17:00;;;;;;;5.72;1.23;;;;;;;29.22;41.45;94122.47;5037122;28;20453;-84
2022/09/09 11:19:37;;;;;;;2.55;0.93;;;;;;;30.15;41.21;94119.53;5018972;28;20083;-84
2022/09/09 11:22:08;;;;;;;3.58;1.10;;;;;;;30.52;41.26;94120.72;5019606;28;20047;-85
2022/09/09 11:24:40;;;;;;;1.80;0.90;;;;;;;31.04;40.77;94119.75;5033506;28;20034;-84
2022/09/09 11:27:16;;;;;;;1.33;0.60;;;;;;;29.19;45.70;94125.94;5019510;28;20025;-85
2022/09/09 11:29:50;;;;;;;4.38;1.17;;;;;;;28.71;49.43;94124.59;5035425;28;20051;-85
2022/09/09 11:32:27;;;;;;;6.68;0.93;;;;;;;28.91;51.24;94114.16;5035708;28;20401;-84
2022/09/09 11:35:12;;;;;;;6.47;0.98;;;;;;;29.66;49.33;94122.97;5035678;28;20029;-84
2022/09/09 11:37:55;;;;;;;8.90;1.55;;;;;;;30.99;51.07;94116.75;5043545;28;20063;-84
2022/09/09 11:40:25;;;;;;;3.28;1.02;;;;;;;31.78;44.40;94116.81;5052403;28;20037;-84
2022/09/09 11:43:03;;;;;;;7.93;1.05;;;;;;;31.09;43.31;94123.19;5038663;28;20357;-84
2022/09/09 11:45:30;;;;;;;4.50;1.08;;;;;;;29.52;45.21;94112.28;5038883;28;20031;-84
2022/09/09 11:48:00;;;;;;;4.82;1.27;;;;;;;30.85;43.53;94126.56;5039283;28;20090;-84
2022/09/09 11:50:25;;;;;;;4.35;1.58;;;;;;;31.20;45.40;94117.63;5033491;28;20044;-85
2022/09/09 11:53:02;;;;;;;3.50;0.90;;;;;;;31.10;47.66;94117.34;5030620;28;20026;-85
2022/09/09 11:55:36;;;;;;;4.55;1.05;;;;;;;30.54;46.56;94110.25;5052967;28;20078;-84
2022/09/09 11:58:14;;;;;;;6.32;1.10;;;;;;;30.23;48.69;94110.19;5052674;28;20044;-85
2022/09/09 12:00:59;;;;;;;6.40;1.20;;;;;;;30.24;47.96;94111.72;5033472;28;20486;-84
2022/09/09 12:03:45;;;;;;;6.85;1.58;;;;;;;29.97;50.36;94115.00;5040078;28;20036;-84
2022/09/09 12:06:11;;;;;;;3.92;1.33;;;;;;;29.77;50.46;94112.88;5056077;28;20106;-85
2022/09/09 12:08:42;;;;;;;5.72;1.63;;;;;;;29.41;51.94;94112.34;5038572;28;20060;-84
2022/09/09 12:11:07;;;;;;;9.73;2.85;;;;;;;29.21;50.23;94115.53;5038177;28;20045;-84
2022/09/09 12:13:33;;;;;;;9.13;2.40;;;;;;;29.15;55.48;94112.47;5056504;28;20039;-84
2022/09/09 12:16:00;;;;;;;9.00;3.10;;;;;;;29.03;55.13;94115.63;5035089;28;20175;-84
2022/09/09 12:18:33;;;;;;;10.18;2.88;;;;;;;28.29;56.29;94125.06;5038700;28;20319;-84
2022/09/09 12:21:08;;;;;;;13.85;2.95;;;;;;;28.33;54.07;94117.75;5038200;28;20106;-85
2022/09/09 12:23:48;;;;;;;16.65;3.55;;;;;;;27.91;54.13;94125.47;5056368;28;20090;-84
2022/09/09 12:29:59;;;;;;;13.55;2.63;;;;;;;28.53;56.66;94135.41;5054335;28;20342;-84
2022/09/09 12:32:25;;;;;;;12.80;2.80;;;;;;;28.58;56.95;94135.00;5056138;28;20029;-84
2022/09/09 12:35:15;;;;;;;8.65;3.53;;;;;;;28.61;56.12;94131.53;5056185;28;20033;-84
2022/09/09 12:37:53;;;;;;;19.88;4.15;;;;;;;29.19;54.12;94132.09;5056349;28;20123;-83
2022/09/09 12:40:25;;;;;;;13.70;4.32;;;;;;;29.66;53.48;94124.91;5021743;28;20135;-84
2022/09/09 12:42:51;;;;;;;9.77;4.68;;;;;;;29.76;53.10;94116.75;5038434;28;20033;-85
2022/09/09 12:48:08;;;;;;;9.43;4.05;;;;;;;31.83;50.64;94122.56;5027150;28;20082;-84
2022/09/09 12:50:39;;;;;;;10.88;4.20;;;;;;;32.06;47.69;94122.97;5037940;28;20033;-85
2022/09/09 12:53:10;;;;;;;14.38;5.13;;;;;;;31.39;46.44;94118.94;5038190;28;20031;-82
2022/09/09 12:55:38;;;;;;;10.13;3.30;;;;;;;32.68;45.95;94119.97;5021904;28;20025;-84
2022/09/09 12:58:05;;;;;;;16.98;4.82;;;;;;;31.41;46.53;94117.34;5018420;28;20060;-82
2022/09/09 13:00:32;;;;;;;10.00;3.92;;;;;;;31.65;48.73;94120.09;5032598;28;20037;-85
2022/09/09 13:03:13;;;;;;;12.75;4.25;;;;;;;31.12;48.62;94128.53;5044378;28;20094;-84
2022/09/09 13:05:38;;;;;;;11.95;4.82;;;;;;;29.51;50.72;94113.44;5039693;28;20038;-85
2022/09/09 13:08:12;;;;;;;9.00;3.85;;;;;;;28.33;57.22;94120.44;5038226;28;20509;-83
2022/09/09 13:10:47;;;;;;;11.32;4.43;;;;;;;27.87;57.30;94115.84;5040942;28;20047;-83
2022/09/09 13:13:20;;;;;;;16.10;4.25;;;;;;;27.43;59.81;94117.72;5038238;28;20029;-84
2022/09/09 13:15:54;;;;;;;12.00;4.20;;;;;;;27.89;61.65;94113.53;5041536;28;20039;-83
2022/09/09 13:18:28;;;;;;;11.65;3.88;;;;;;;28.29;59.85;94108.91;5041547;28;20035;-83
2022/09/09 13:20:54;;;;;;;16.25;4.25;;;;;;;28.25;63.50;94105.44;5041019;28;20028;-84
2022/09/09 13:23:20;;;;;;;12.15;3.83;;;;;;;27.93;59.09;94112.41;5037690;28;20025;-83
2022/09/09 13:25:58;;;;;;;8.60;3.15;;;;;;;27.71;61.05;94106.25;5035794;28;20323;-84
2022/09/09 13:28:26;;;;;;;12.13;3.80;;;;;;;27.79;60.25;94098.94;5021442;28;20026;-83
2022/09/09 13:31:03;;;;;;;11.15;3.65;;;;;;;28.37;68.49;94104.28;5024428;28;20123;-83
2022/09/09 13:33:37;;;;;;;11.05;4.30;;;;;;;28.52;58.98;94113.06;5038462;28;20029;-84
2022/09/09 13:36:10;;;;;;;11.02;3.97;;;;;;;28.41;58.71;94115.06;5041258;28;20056;-84
2022/09/09 13:38:38;;;;;;;10.20;3.47;;;;;;;28.77;56.45;94104.94;5039486;28;20034;-84
2022/09/09 13:41:06;;;;;;;9.63;3.22;;;;;;;28.40;59.23;94103.50;5040499;28;20349;-83
2022/09/09 13:43:38;;;;;;;10.75;3.40;;;;;;;28.24;58.27;94101.22;5038607;28;20042;-84
2022/09/09 13:46:21;;;;;;;10.15;3.78;;;;;;;27.52;55.42;94102.75;5059008;28;20036;-83
2022/09/09 13:49:08;;;;;;;11.17;3.43;;;;;;;28.36;55.94;94098.13;5041264;28;20061;-84